Time;durP1;ratioP1;P1;durP2;ratioP2;P2;SDS_P1;SDS_P2;PMS_P1;PMS_P2;Temp;Humidity;BMP_temperature;BMP_pressure;BME280_temperature;BME280_humidity;BME280_pressure;Samples;Min_cycle;Max_cycle;Signal;HPM_P1;HPM_P2
2023/01/24 05:25:20;;;;;;;11.07;7.45;;;1.60;99.90;;;;;;4945369;29;20459;-69
2023/01/24 05:27:47;;;;;;;10.68;6.68;;;1.50;99.90;;;;;;4950707;29;20579;-69
2023/01/24 05:30:14;;;;;;;13.38;8.05;;;1.50;99.90;;;;;;4950404;29;20212;-69
2023/01/24 05:32:41;;;;;;;10.05;6.55;;;1.50;99.90;;;;;;4949176;28;20220;-69
2023/01/24 05:35:09;;;;;;;8.27;6.15;;;1.50;99.90;;;;;;4949686;29;20637;-69
2023/01/24 05:37:37;;;;;;;10.68;6.97;;;1.50;99.90;;;;;;4949928;29;20207;-69
2023/01/24 05:40:05;;;;;;;16.33;7.65;;;1.60;99.90;;;;;;4949494;29;20675;-69
2023/01/24 05:42:33;;;;;;;13.18;6.63;;;1.60;99.90;;;;;;4949772;28;20205;-69
2023/01/24 05:45:00;;;;;;;10.65;6.68;;;1.60;99.90;;;;;;4951178;29;20209;-69
2023/01/24 05:47:26;;;;;;;11.23;6.80;;;1.60;99.90;;;;;;4951943;28;20255;-69
2023/01/24 05:49:53;;;;;;;9.63;7.10;;;1.50;99.90;;;;;;4954703;29;20219;-69
2023/01/24 05:52:21;;;;;;;12.23;8.18;;;1.60;99.90;;;;;;4955411;28;20209;-69
2023/01/24 05:54:48;;;;;;;11.32;7.80;;;1.60;99.90;;;;;;4955318;29;20691;-69
2023/01/24 05:57:15;;;;;;;11.48;7.65;;;1.60;99.90;;;;;;4955473;29;20208;-69
2023/01/24 05:59:43;;;;;;;11.35;7.45;;;1.60;99.90;;;;;;4954622;29;20678;-69
2023/01/24 06:02:10;;;;;;;9.35;6.88;;;1.60;99.90;;;;;;4955399;29;20215;-69
2023/01/24 06:04:36;;;;;;;11.00;7.95;;;1.60;99.90;;;;;;4955289;28;20707;-69
2023/01/24 06:07:03;;;;;;;14.10;8.05;;;1.60;99.90;;;;;;4955208;29;20577;-69
2023/01/24 06:09:31;;;;;;;11.02;8.18;;;1.60;99.90;;;;;;4954682;29;20204;-69
2023/01/24 06:11:57;;;;;;;10.30;6.85;;;1.60;99.90;;;;;;4954983;29;20638;-69
2023/01/24 06:14:24;;;;;;;12.00;7.32;;;1.60;99.90;;;;;;4954989;28;20220;-69
2023/01/24 06:16:52;;;;;;;13.10;7.75;;;1.60;99.90;;;;;;4954930;29;20201;-69
2023/01/24 06:19:19;;;;;;;10.25;6.93;;;1.60;99.90;;;;;;4954467;29;20205;-69
2023/01/24 06:21:53;;;;;;;11.80;7.85;;;1.60;99.90;;;;;;4954828;29;20216;-69
2023/01/24 06:24:21;;;;;;;10.13;6.60;;;1.60;99.90;;;;;;4954651;28;20232;-69
2023/01/24 06:26:50;;;;;;;12.10;7.28;;;1.60;99.90;;;;;;4954648;29;20255;-69
2023/01/24 06:29:18;;;;;;;12.82;8.45;;;1.50;99.90;;;;;;4954499;29;20236;-68
2023/01/24 06:31:58;;;;;;;12.88;7.53;;;1.50;99.90;;;;;;4954836;29;20693;-69
2023/01/24 06:34:42;;;;;;;11.98;6.85;;;1.50;99.90;;;;;;4954963;28;20224;-69
2023/01/24 06:37:16;;;;;;;14.38;7.97;;;1.40;99.90;;;;;;4954878;29;20609;-69
2023/01/24 06:39:49;;;;;;;15.45;7.32;;;1.50;99.90;;;;;;4954123;29;20216;-69
2023/01/24 06:42:17;;;;;;;13.43;7.50;;;1.50;99.90;;;;;;4954527;28;20208;-69
2023/01/24 06:44:44;;;;;;;13.07;6.90;;;1.50;99.90;;;;;;4954557;29;20209;-69
2023/01/24 06:47:12;;;;;;;10.73;6.88;;;1.50;99.90;;;;;;4954551;29;20251;-70
2023/01/24 06:49:39;;;;;;;12.10;7.75;;;1.50;99.90;;;;;;4953947;29;20204;-68
2023/01/24 06:52:07;;;;;;;14.43;6.93;;;1.50;99.90;;;;;;4954268;29;20208;-69
2023/01/24 06:54:35;;;;;;;7.38;5.65;;;1.60;99.90;;;;;;4954412;28;20235;-69
2023/01/24 06:57:02;;;;;;;13.73;7.03;;;1.60;99.90;;;;;;4954088;29;20578;-69
2023/01/24 06:59:28;;;;;;;9.93;6.88;;;1.60;99.90;;;;;;4953638;28;20209;-69
2023/01/24 07:01:55;;;;;;;11.98;7.07;;;1.60;99.90;;;;;;4954236;29;20215;-69
2023/01/24 07:04:23;;;;;;;15.13;8.40;;;1.60;99.90;;;;;;4954120;28;20235;-69
2023/01/24 07:06:52;;;;;;;13.05;7.10;;;1.60;99.90;;;;;;4954123;29;20597;-68
2023/01/24 07:09:19;;;;;;;15.00;6.68;;;1.60;99.90;;;;;;4953490;29;20212;-69
2023/01/24 07:11:47;;;;;;;12.10;7.78;;;1.60;99.90;;;;;;4953943;29;20211;-69
2023/01/24 07:14:14;;;;;;;11.75;7.07;;;1.60;99.90;;;;;;4954047;28;20657;-69
2023/01/24 07:16:41;;;;;;;11.35;6.80;;;1.50;99.90;;;;;;4954192;29;20209;-69
2023/01/24 07:19:13;;;;;;;12.73;7.13;;;1.50;99.90;;;;;;4953246;29;20216;-68
2023/01/24 07:21:42;;;;;;;13.32;8.32;;;1.50;99.90;;;;;;4954119;29;20212;-68
2023/01/24 07:24:14;;;;;;;12.05;7.65;;;1.50;99.90;;;;;;4953465;28;20243;-68
2023/01/24 07:26:41;;;;;;;13.18;8.18;;;1.50;99.90;;;;;;4953780;29;20586;-69
2023/01/24 07:29:08;;;;;;;13.15;8.35;;;1.50;99.90;;;;;;4953144;29;20239;-69
2023/01/24 07:31:35;;;;;;;11.43;6.70;;;1.50;99.90;;;;;;4953736;29;20204;-69
2023/01/24 07:34:01;;;;;;;11.85;7.57;;;1.50;99.90;;;;;;4953439;28;20231;-68
2023/01/24 07:36:28;;;;;;;12.00;7.00;;;1.50;99.90;;;;;;4953637;29;20212;-68
2023/01/24 07:38:56;;;;;;;14.98;9.27;;;1.50;99.90;;;;;;4953027;29;20196;-68
2023/01/24 07:41:23;;;;;;;10.95;7.63;;;1.60;99.90;;;;;;4953548;29;20212;-68
2023/01/24 07:43:50;;;;;;;11.20;7.15;;;1.60;99.90;;;;;;4953467;28;20228;-69
2023/01/24 07:46:17;;;;;;;13.25;8.15;;;1.60;99.90;;;;;;4953639;29;20598;-69
2023/01/24 07:48:43;;;;;;;13.10;7.95;;;1.60;99.90;;;;;;4953158;29;20711;-68
2023/01/24 07:51:10;;;;;;;15.48;7.90;;;1.70;99.90;;;;;;4953441;29;20629;-69
2023/01/24 07:53:37;;;;;;;15.07;7.72;;;1.70;99.90;;;;;;4953234;28;20235;-69
2023/01/24 07:56:06;;;;;;;12.32;7.80;;;1.70;99.90;;;;;;4953045;29;20244;-69
2023/01/24 07:58:33;;;;;;;11.02;7.00;;;1.70;99.90;;;;;;4952824;29;20247;-69
2023/01/24 08:01:00;;;;;;;15.80;8.35;;;1.70;99.90;;;;;;4952912;29;20219;-68
2023/01/24 08:03:26;;;;;;;14.82;8.65;;;1.70;99.90;;;;;;4953245;28;20228;-69
2023/01/24 08:05:54;;;;;;;10.68;7.82;;;1.80;99.90;;;;;;4953008;29;20208;-69
2023/01/24 08:08:20;;;;;;;12.73;7.45;;;1.80;99.90;;;;;;4952403;29;20275;-68
2023/01/24 08:10:47;;;;;;;11.60;8.32;;;1.80;99.90;;;;;;4952383;28;20216;-69
2023/01/24 08:13:15;;;;;;;11.90;7.10;;;1.70;99.90;;;;;;4952899;28;20641;-69
2023/01/24 08:15:42;;;;;;;14.23;8.13;;;1.70;99.90;;;;;;4953021;29;20204;-69
2023/01/24 08:18:09;;;;;;;15.50;8.75;;;1.70;99.90;;;;;;4952435;29;20204;-69
2023/01/24 08:20:35;;;;;;;12.95;7.30;;;1.80;99.90;;;;;;4952748;29;20209;-68
2023/01/24 08:23:02;;;;;;;10.23;6.65;;;1.80;99.90;;;;;;4952442;28;20739;-69
2023/01/24 08:25:31;;;;;;;14.98;8.68;;;1.80;99.90;;;;;;4952945;29;20791;-68
2023/01/24 08:27:58;;;;;;;14.23;8.02;;;1.80;99.90;;;;;;4952432;29;20653;-68
2023/01/24 08:30:26;;;;;;;8.82;6.82;;;1.90;99.90;;;;;;4952481;29;20214;-69
2023/01/24 08:33:03;;;;;;;12.00;7.70;;;1.90;99.90;;;;;;4952390;28;20229;-69
2023/01/24 08:35:31;;;;;;;15.30;8.23;;;1.80;99.90;;;;;;4953106;29;20601;-68
2023/01/24 08:37:58;;;;;;;9.07;6.35;;;1.80;99.90;;;;;;4952547;29;20227;-69
2023/01/24 08:40:26;;;;;;;10.35;6.47;;;1.80;99.90;;;;;;4952148;29;20209;-69
2023/01/24 08:42:53;;;;;;;12.98;8.02;;;1.80;99.90;;;;;;4952367;28;20232;-68
2023/01/24 08:45:19;;;;;;;15.77;7.93;;;1.90;99.90;;;;;;4952728;29;20209;-69
2023/01/24 08:47:54;;;;;;;12.45;7.93;;;1.90;99.90;;;;;;4952408;29;20702;-68
2023/01/24 08:50:20;;;;;;;16.15;6.90;;;2.00;99.90;;;;;;4953076;29;20211;-69
2023/01/24 08:52:47;;;;;;;9.50;6.38;;;2.00;99.90;;;;;;4952293;28;20225;-68
2023/01/24 08:55:15;;;;;;;15.00;8.50;;;1.90;99.90;;;;;;4952463;29;20211;-69
2023/01/24 08:57:41;;;;;;;12.80;7.55;;;2.00;99.90;;;;;;4952910;29;20204;-69
2023/01/24 09:00:10;;;;;;;13.05;7.25;;;2.00;99.90;;;;;;4951965;29;20667;-69
2023/01/24 09:02:38;;;;;;;14.88;7.65;;;2.00;99.90;;;;;;4946745;28;20232;-69
2023/01/24 09:05:07;;;;;;;10.07;7.18;;;2.00;99.90;;;;;;4951859;29;20215;-69
2023/01/24 09:07:36;;;;;;;11.77;7.88;;;2.00;99.90;;;;;;4952275;29;20208;-69
2023/01/24 09:10:03;;;;;;;10.93;7.50;;;2.10;99.90;;;;;;4951193;29;20271;-69
2023/01/24 09:12:31;;;;;;;11.60;7.25;;;2.10;99.90;;;;;;4951446;28;20626;-69
2023/01/24 09:14:58;;;;;;;11.05;6.85;;;2.20;99.90;;;;;;4952175;29;20208;-68
2023/01/24 09:17:28;;;;;;;13.00;7.38;;;2.20;99.90;;;;;;4952133;29;20583;-69
2023/01/24 09:19:54;;;;;;;11.32;6.55;;;2.20;99.90;;;;;;4951485;29;20273;-69
2023/01/24 09:22:23;;;;;;;11.45;7.03;;;2.20;99.90;;;;;;4953473;28;20231;-69
2023/01/24 09:24:49;;;;;;;12.18;7.95;;;2.20;99.90;;;;;;4955303;29;20215;-69
2023/01/24 09:27:16;;;;;;;13.27;7.90;;;2.20;99.90;;;;;;4954359;29;20205;-69
2023/01/24 09:29:44;;;;;;;11.90;7.30;;;2.20;99.90;;;;;;4955358;29;20576;-69
2023/01/24 09:32:12;;;;;;;14.95;8.88;;;2.30;99.90;;;;;;4955321;29;20554;-69
2023/01/24 09:34:45;;;;;;;9.93;7.40;;;2.30;99.90;;;;;;4955699;28;20280;-69
2023/01/24 09:37:12;;;;;;;12.13;7.60;;;2.30;99.90;;;;;;4955769;29;20208;-69
2023/01/24 09:39:40;;;;;;;11.93;7.20;;;2.30;99.90;;;;;;4955059;29;20201;-69
2023/01/24 09:42:15;;;;;;;11.48;7.03;;;2.30;99.90;;;;;;4955413;29;20299;-70
2023/01/24 09:44:46;;;;;;;13.68;7.43;;;2.30;99.90;;;;;;4955582;29;20690;-69
2023/01/24 09:47:24;;;;;;;10.50;7.25;;;2.30;99.90;;;;;;4955604;29;20215;-69
2023/01/24 09:49:56;;;;;;;10.13;6.82;;;2.40;99.90;;;;;;4954284;29;20251;-70
2023/01/24 09:52:30;;;;;;;12.02;6.65;;;2.30;99.90;;;;;;4955269;29;20676;-69
2023/01/24 09:55:03;;;;;;;8.48;6.22;;;2.40;99.90;;;;;;4955483;29;20203;-69
2023/01/24 09:57:35;;;;;;;9.95;6.82;;;2.40;99.90;;;;;;4955521;29;20227;-69
2023/01/24 10:00:05;;;;;;;11.25;7.03;;;2.50;99.90;;;;;;4954229;29;20212;-69
2023/01/24 10:02:32;;;;;;;10.98;7.53;;;2.50;99.90;;;;;;4955313;29;20196;-69
2023/01/24 10:05:00;;;;;;;13.68;7.20;;;2.50;99.90;;;;;;4955311;28;20243;-69
2023/01/24 10:08:02;;;;;;;11.43;7.43;;;2.50;99.90;;;;;;4954920;28;20201;-68
2023/01/24 10:10:45;;;;;;;9.90;6.88;;;2.60;99.90;;;;;;4955198;29;20655;-69
2023/01/24 10:13:27;;;;;;;11.07;6.65;;;2.60;99.90;;;;;;4954664;28;20224;-69
2023/01/24 10:16:05;;;;;;;12.40;7.53;;;2.60;99.90;;;;;;4954716;29;20672;-69
2023/01/24 10:18:46;;;;;;;10.30;5.72;;;2.60;99.90;;;;;;4954740;29;20200;-69
2023/01/24 10:21:33;;;;;;;11.60;7.43;;;2.60;99.90;;;;;;4955127;28;20215;-69
2023/01/24 10:24:04;;;;;;;11.20;7.28;;;2.60;99.90;;;;;;4954233;28;20595;-69
2023/01/24 10:26:38;;;;;;;11.43;6.35;;;2.60;99.90;;;;;;4954801;29;20205;-69
2023/01/24 10:29:12;;;;;;;11.70;7.05;;;2.60;99.90;;;;;;4954186;28;20224;-69
2023/01/24 10:31:42;;;;;;;12.07;7.05;;;2.60;99.90;;;;;;4954656;28;20204;-69
2023/01/24 10:34:13;;;;;;;11.68;6.47;;;2.70;99.90;;;;;;4953605;28;20232;-69
2023/01/24 10:36:45;;;;;;;10.02;6.60;;;2.70;99.90;;;;;;4954235;29;20703;-69
2023/01/24 10:39:12;;;;;;;11.10;6.50;;;2.70;99.90;;;;;;4954181;29;20201;-69
2023/01/24 10:41:41;;;;;;;12.23;7.35;;;2.70;99.90;;;;;;4954331;29;20200;-69
2023/01/24 10:44:15;;;;;;;9.60;6.32;;;2.70;99.90;;;;;;4953890;28;20240;-68
2023/01/24 10:47:09;;;;;;;10.48;7.05;;;2.70;99.90;;;;;;4954265;29;20680;-69
2023/01/24 10:49:38;;;;;;;10.13;5.75;;;2.80;99.90;;;;;;4952454;29;20699;-69
2023/01/24 10:52:12;;;;;;;10.13;7.05;;;2.80;99.90;;;;;;4953572;29;20252;-69
2023/01/24 10:54:47;;;;;;;11.02;6.30;;;2.80;99.90;;;;;;4953099;28;20263;-69
2023/01/24 10:57:33;;;;;;;8.70;6.43;;;2.80;99.90;;;;;;4934788;29;20205;-68
2023/01/24 11:00:20;;;;;;;11.30;6.47;;;2.80;99.90;;;;;;4934386;29;20205;-69
2023/01/24 11:02:49;;;;;;;8.25;5.35;;;2.80;99.90;;;;;;4940064;28;20710;-69
2023/01/24 11:05:18;;;;;;;8.52;5.57;;;2.80;99.90;;;;;;4954417;29;20243;-69
2023/01/24 11:07:50;;;;;;;12.93;7.05;;;2.80;99.90;;;;;;4954209;29;20764;-69
2023/01/24 11:10:24;;;;;;;14.98;6.90;;;2.80;99.90;;;;;;4953502;29;20216;-68
2023/01/24 11:12:54;;;;;;;10.05;6.18;;;2.70;99.90;;;;;;4953953;28;20229;-71
2023/01/24 11:15:25;;;;;;;10.88;5.88;;;2.80;99.90;;;;;;4953826;29;20223;-70
2023/01/24 11:17:58;;;;;;;13.07;6.57;;;2.80;99.90;;;;;;4953580;29;20667;-70
2023/01/24 11:20:30;;;;;;;12.00;6.13;;;2.90;99.90;;;;;;4953472;29;20205;-70
2023/01/24 11:23:07;;;;;;;7.80;6.43;;;2.90;99.90;;;;;;4953683;28;20288;-70
2023/01/24 11:25:34;;;;;;;10.07;6.65;;;3.00;99.90;;;;;;4953256;29;20697;-69
2023/01/24 11:28:02;;;;;;;7.72;5.68;;;3.00;99.90;;;;;;4953648;29;20212;-69
2023/01/24 11:30:34;;;;;;;6.28;5.18;;;3.00;99.90;;;;;;4953498;29;20557;-70
2023/01/24 11:33:15;;;;;;;9.93;6.60;;;3.10;99.90;;;;;;4953288;28;20279;-70
2023/01/24 11:35:45;;;;;;;8.18;5.80;;;3.00;99.90;;;;;;4953664;29;20204;-70
2023/01/24 11:38:25;;;;;;;7.28;5.70;;;3.10;99.90;;;;;;4950962;29;20675;-70
2023/01/24 11:41:03;;;;;;;5.82;4.38;;;3.00;99.90;;;;;;4952610;29;20208;-70
2023/01/24 11:43:57;;;;;;;9.75;5.95;;;3.00;99.90;;;;;;4952897;28;20229;-69
2023/01/24 11:46:39;;;;;;;8.63;5.38;;;3.00;99.90;;;;;;4952752;28;20211;-70
2023/01/24 11:49:32;;;;;;;7.25;5.30;;;3.00;99.90;;;;;;4948931;29;20228;-69
2023/01/24 11:52:06;;;;;;;6.72;5.57;;;3.00;99.90;;;;;;4952286;29;20220;-71
2023/01/24 11:54:45;;;;;;;8.32;5.05;;;3.10;99.90;;;;;;4952493;28;20227;-70
2023/01/24 11:57:26;;;;;;;11.27;6.40;;;3.10;99.90;;;;;;4953332;29;20204;-70
2023/01/24 12:00:02;;;;;;;11.15;5.15;;;3.10;99.90;;;;;;4952373;29;20211;-70
2023/01/24 12:02:48;;;;;;;7.00;4.95;;;3.10;99.90;;;;;;4951439;28;20207;-69
2023/01/24 12:05:31;;;;;;;7.20;5.38;;;3.10;99.90;;;;;;4953089;29;20215;-70
2023/01/24 12:08:11;;;;;;;10.90;6.95;;;3.10;99.90;;;;;;4952821;29;20275;-70
2023/01/24 12:10:49;;;;;;;8.10;5.38;;;3.20;99.90;;;;;;4952579;29;20561;-68
2023/01/24 12:13:22;;;;;;;8.35;5.25;;;3.20;99.90;;;;;;4952510;28;20236;-69
2023/01/24 12:16:01;;;;;;;8.65;5.60;;;3.20;99.90;;;;;;4952428;29;20289;-70
2023/01/24 12:18:52;;;;;;;6.55;5.85;;;3.20;99.90;;;;;;4952206;29;20204;-68
2023/01/24 12:21:19;;;;;;;8.98;5.13;;;3.10;99.90;;;;;;4952964;29;20658;-70
2023/01/24 12:23:54;;;;;;;10.23;5.78;;;3.10;99.90;;;;;;4952015;28;20241;-70
2023/01/24 12:26:24;;;;;;;7.60;5.97;;;3.10;99.90;;;;;;4952937;29;20204;-70
2023/01/24 12:29:00;;;;;;;10.70;6.38;;;3.20;99.90;;;;;;4951450;29;20224;-70
2023/01/24 12:31:43;;;;;;;7.93;5.55;;;3.20;99.90;;;;;;4952494;29;20575;-69
2023/01/24 12:34:22;;;;;;;11.13;6.57;;;3.20;99.90;;;;;;4949351;28;20224;-70
2023/01/24 12:36:56;;;;;;;10.02;6.00;;;3.30;99.90;;;;;;4952626;29;20209;-70
2023/01/24 12:39:27;;;;;;;6.22;4.95;;;3.30;99.90;;;;;;4951427;29;20201;-70
2023/01/24 12:42:02;;;;;;;8.65;5.28;;;3.30;99.90;;;;;;4952142;29;20215;-70
2023/01/24 12:44:33;;;;;;;12.02;5.68;;;3.30;99.90;;;;;;4952421;28;20219;-70
2023/01/24 12:47:17;;;;;;;9.38;6.00;;;3.30;99.90;;;;;;4951438;29;20204;-70
2023/01/24 12:49:54;;;;;;;12.65;6.20;;;3.30;99.90;;;;;;4951353;29;20224;-70
2023/01/24 12:52:26;;;;;;;12.07;5.55;;;3.20;99.90;;;;;;4951416;28;20578;-70
2023/01/24 12:54:57;;;;;;;9.98;6.28;;;3.20;99.90;;;;;;4951975;29;20204;-70
2023/01/24 12:57:30;;;;;;;8.65;6.43;;;3.20;99.90;;;;;;4952077;29;20209;-70
2023/01/24 12:59:57;;;;;;;8.07;5.53;;;3.20;99.90;;;;;;4951623;29;20200;-70
2023/01/24 13:02:54;;;;;;;6.63;5.20;;;3.30;99.90;;;;;;4951816;28;20211;-70
2023/01/24 13:05:38;;;;;;;8.35;5.90;;;3.20;99.90;;;;;;4951496;29;20201;-70
2023/01/24 13:08:14;;;;;;;5.97;5.15;;;3.30;99.90;;;;;;4951737;29;20204;-70
2023/01/24 13:10:52;;;;;;;8.85;6.35;;;3.20;99.90;;;;;;4951581;29;20592;-69
2023/01/24 13:13:24;;;;;;;9.73;6.72;;;3.20;99.90;;;;;;4952367;28;20719;-69
2023/01/24 13:16:05;;;;;;;9.20;5.38;;;3.20;99.90;;;;;;4951103;29;20200;-69
2023/01/24 13:18:49;;;;;;;10.98;5.70;;;3.20;99.90;;;;;;4951990;29;20204;-69
2023/01/24 13:21:21;;;;;;;9.05;6.25;;;3.10;99.90;;;;;;4952062;29;20671;-70
2023/01/24 13:23:59;;;;;;;9.68;5.45;;;3.10;99.90;;;;;;4952035;28;20319;-70
2023/01/24 13:26:57;;;;;;;7.97;5.68;;;3.10;99.90;;;;;;4952098;29;20713;-70
2023/01/24 13:29:47;;;;;;;9.98;6.07;;;3.10;99.90;;;;;;4951139;29;20224;-71
2023/01/24 13:32:16;;;;;;;8.82;5.28;;;3.10;99.90;;;;;;4951538;29;20208;-70
2023/01/24 13:34:48;;;;;;;8.80;5.80;;;3.10;99.90;;;;;;4952267;29;20219;-70
2023/01/24 13:37:19;;;;;;;8.10;6.13;;;3.10;99.90;;;;;;4952037;29;20644;-71
2023/01/24 13:39:47;;;;;;;7.75;5.18;;;3.20;99.90;;;;;;4950427;29;20232;-70
2023/01/24 13:42:22;;;;;;;10.40;6.25;;;3.10;99.90;;;;;;4952087;29;20200;-70
2023/01/24 13:44:49;;;;;;;7.20;4.65;;;3.10;99.90;;;;;;4951497;29;20586;-69
2023/01/24 13:47:33;;;;;;;11.52;5.45;;;3.10;99.90;;;;;;4951927;29;20208;-70
2023/01/24 13:50:16;;;;;;;7.18;5.53;;;3.20;99.90;;;;;;4950961;29;20251;-70
2023/01/24 13:52:51;;;;;;;7.78;5.35;;;3.20;99.90;;;;;;4950827;28;20235;-70
2023/01/24 13:55:57;;;;;;;10.27;5.50;;;3.30;99.90;;;;;;4952295;29;20231;-70
2023/01/24 13:58:29;;;;;;;8.90;5.90;;;3.20;99.90;;;;;;4943625;29;20275;-73
2023/01/24 14:00:58;;;;;;;6.80;5.90;;;3.20;99.90;;;;;;4951452;29;20228;-70
2023/01/24 14:03:29;;;;;;;9.32;5.47;;;3.10;99.90;;;;;;4951618;28;20224;-69
2023/01/24 14:06:07;;;;;;;8.25;5.45;;;3.10;99.90;;;;;;4951274;29;20219;-70
2023/01/24 14:08:53;;;;;;;11.82;6.15;;;3.10;99.90;;;;;;4951125;28;20291;-70
2023/01/24 14:11:32;;;;;;;5.63;4.60;;;3.10;99.90;;;;;;4952992;29;20671;-70
2023/01/24 14:14:29;;;;;;;6.13;5.20;;;3.00;99.90;;;;;;4954283;28;20232;-70
2023/01/24 14:17:05;;;;;;;9.43;5.65;;;3.00;99.90;;;;;;4954259;29;20220;-70
2023/01/24 14:19:37;;;;;;;10.18;5.45;;;3.00;99.90;;;;;;4954496;29;20597;-70
2023/01/24 14:22:17;;;;;;;7.55;4.82;;;2.90;99.90;;;;;;4954430;29;20560;-70
2023/01/24 14:24:53;;;;;;;7.15;5.35;;;2.90;99.90;;;;;;4954568;29;20239;-70
2023/01/24 14:27:24;;;;;;;7.85;5.70;;;2.80;99.90;;;;;;4954882;29;20208;-71
2023/01/24 14:29:55;;;;;;;6.75;4.80;;;2.90;99.90;;;;;;4953426;29;20228;-71
2023/01/24 14:32:25;;;;;;;5.50;4.70;;;2.80;99.90;;;;;;4954614;28;20212;-71
2023/01/24 14:35:02;;;;;;;9.50;6.55;;;2.80;99.90;;;;;;4954438;29;20571;-70
2023/01/24 14:37:31;;;;;;;8.05;6.18;;;2.80;99.90;;;;;;4954636;29;20211;-70
2023/01/24 14:40:11;;;;;;;6.95;5.35;;;2.80;99.90;;;;;;4954180;29;20208;-70
2023/01/24 14:42:38;;;;;;;10.70;6.05;;;2.70;99.90;;;;;;4954748;28;20228;-70
2023/01/24 14:45:13;;;;;;;8.60;6.18;;;2.80;99.90;;;;;;4954154;29;20208;-70
2023/01/24 14:47:40;;;;;;;7.15;5.40;;;2.80;99.90;;;;;;4954915;29;20215;-70
2023/01/24 14:50:21;;;;;;;8.27;6.68;;;2.80;99.90;;;;;;4953832;29;20231;-70
2023/01/24 14:52:50;;;;;;;9.30;5.43;;;2.80;99.90;;;;;;4953699;28;20260;-70
2023/01/24 14:55:38;;;;;;;8.50;5.68;;;2.70;99.90;;;;;;4953925;29;20344;-70
2023/01/24 14:58:15;;;;;;;8.25;5.85;;;2.70;99.90;;;;;;4954308;29;20797;-70
2023/01/24 15:00:42;;;;;;;8.95;6.97;;;2.60;99.90;;;;;;4953662;29;20212;-70
2023/01/24 15:03:17;;;;;;;8.20;5.63;;;2.60;99.90;;;;;;4953712;28;20221;-70
2023/01/24 15:05:54;;;;;;;10.20;6.22;;;2.60;99.90;;;;;;4953596;29;20679;-69
2023/01/24 15:08:24;;;;;;;7.55;5.63;;;2.60;99.90;;;;;;4953102;29;20204;-69
2023/01/24 15:11:03;;;;;;;9.27;5.40;;;2.50;99.90;;;;;;4953807;29;20225;-70
2023/01/24 15:13:34;;;;;;;9.70;5.40;;;2.50;99.90;;;;;;4953587;28;20228;-69
2023/01/24 15:16:01;;;;;;;6.55;4.82;;;2.50;99.90;;;;;;4953552;29;20582;-70
2023/01/24 15:18:45;;;;;;;11.00;5.85;;;2.60;99.90;;;;;;4952949;29;20204;-70
2023/01/24 16:55:11;;;;;;;13.63;7.70;;;2.30;99.90;;;;;;4956198;29;20303;-93
2023/01/24 16:57:38;;;;;;;13.75;7.45;;;2.20;99.90;;;;;;4949320;29;20216;-94
2023/01/24 17:00:11;;;;;;;14.90;6.90;;;2.10;99.90;;;;;;4957514;29;20204;-94
2023/01/24 17:02:38;;;;;;;7.20;6.10;;;2.20;99.90;;;;;;4960442;29;20607;-93
2023/01/24 17:05:06;;;;;;;9.93;6.47;;;2.10;99.90;;;;;;4963254;29;20224;-95
2023/01/24 17:07:33;;;;;;;16.10;8.05;;;2.10;99.90;;;;;;4969444;29;20214;-93
2023/01/24 17:10:02;;;;;;;16.00;8.25;;;2.10;99.90;;;;;;4967733;29;20224;-94
2023/01/24 17:12:31;;;;;;;10.25;6.55;;;2.10;99.90;;;;;;4960395;29;20318;-93
2023/01/24 17:14:59;;;;;;;10.35;7.65;;;2.10;99.90;;;;;;4964043;29;20212;-95
2023/01/24 17:17:26;;;;;;;8.85;6.50;;;2.10;99.90;;;;;;4962283;29;20200;-93
2023/01/24 17:19:53;;;;;;;11.23;6.93;;;2.10;99.90;;;;;;4962290;29;20216;-94
2023/01/24 17:22:21;;;;;;;13.23;6.85;;;2.10;99.90;;;;;;4962575;29;20236;-94
2023/01/24 17:24:48;;;;;;;9.05;6.45;;;2.10;99.90;;;;;;4962798;29;20208;-94
2023/01/24 17:27:16;;;;;;;11.20;6.78;;;2.10;99.90;;;;;;4960874;29;20216;-94
2023/01/24 17:29:43;;;;;;;13.15;7.60;;;2.10;99.90;;;;;;4959962;29;20209;-94
2023/01/24 17:32:10;;;;;;;14.40;9.05;;;2.10;99.90;;;;;;4960355;29;20232;-95
2023/01/24 17:34:37;;;;;;;11.27;8.55;;;2.10;99.90;;;;;;4962821;29;20209;-94
2023/01/24 17:37:07;;;;;;;11.70;7.75;;;2.10;99.90;;;;;;4962483;29;20228;-93
2023/01/24 17:39:34;;;;;;;11.45;7.30;;;2.00;99.90;;;;;;4959941;29;20216;-93
2023/01/24 17:42:01;;;;;;;12.75;8.90;;;2.00;99.90;;;;;;4959729;29;20299;-94
2023/01/24 17:44:29;;;;;;;11.70;7.60;;;1.90;99.90;;;;;;4961777;28;20231;-94
2023/01/24 17:46:56;;;;;;;14.32;7.15;;;2.00;99.90;;;;;;4961095;29;20215;-92
2023/01/24 17:49:24;;;;;;;16.10;8.30;;;2.00;99.90;;;;;;4966062;29;20240;-94
2023/01/24 17:51:51;;;;;;;12.20;8.30;;;2.00;99.90;;;;;;4967846;29;20231;-93
2023/01/24 17:54:18;;;;;;;13.90;9.02;;;1.90;99.90;;;;;;4978017;28;20280;-95
2023/01/24 17:59:27;;;;;;;13.77;8.05;;;1.90;99.90;;;;;;4963657;29;20592;-92
2023/01/24 18:02:09;;;;;;;13.02;7.60;;;2.00;99.90;;;;;;4963456;29;20201;-92
2023/01/24 18:04:36;;;;;;;12.15;8.52;;;2.00;99.90;;;;;;4964590;29;20259;-91
2023/01/24 18:07:03;;;;;;;11.95;8.48;;;2.00;99.90;;;;;;4964143;29;20207;-92
2023/01/24 18:09:43;;;;;;;14.32;9.20;;;2.00;99.90;;;;;;4961727;29;20235;-92
2023/01/24 18:12:09;;;;;;;15.32;8.48;;;2.00;99.90;;;;;;4964907;29;20232;-92
2023/01/24 18:14:49;;;;;;;13.07;9.13;;;2.00;99.90;;;;;;4966910;29;20223;-93
2023/01/24 18:17:21;;;;;;;11.48;8.57;;;2.00;99.90;;;;;;4965429;29;20214;-92
2023/01/24 18:19:48;;;;;;;14.30;8.48;;;2.00;99.90;;;;;;4965986;29;20205;-93
2023/01/24 18:22:15;;;;;;;15.40;8.07;;;1.90;99.90;;;;;;4965378;29;20238;-94
2023/01/24 18:24:46;;;;;;;15.00;9.35;;;1.90;99.90;;;;;;4962888;29;20465;-93
2023/01/24 18:31:35;;;;;;;14.57;8.35;;;1.80;99.90;;;;;;4954349;29;20224;-93
2023/01/24 18:34:13;;;;;;;10.38;7.75;;;1.90;99.90;;;;;;4944095;29;20324;-93
2023/01/24 18:36:41;;;;;;;12.40;8.15;;;1.80;99.90;;;;;;5006405;23;20223;-94
2023/01/24 18:44:23;;;;;;;16.67;9.60;;;1.80;99.90;;;;;;5126198;23;20299;-93
2023/01/24 18:46:55;;;;;;;16.77;9.20;;;1.80;99.90;;;;;;4990365;28;20356;-94
2023/01/24 18:49:29;;;;;;;13.32;8.00;;;1.80;99.90;;;;;;4989804;28;20227;-93
2023/01/24 18:51:58;;;;;;;12.77;8.38;;;1.80;99.90;;;;;;4989882;28;20237;-93
2023/01/24 18:54:40;;;;;;;18.27;8.70;;;1.80;99.90;;;;;;4985804;28;20207;-93
2023/01/24 18:57:10;;;;;;;11.15;7.82;;;1.80;99.90;;;;;;4985343;28;20212;-93
2023/01/24 18:59:38;;;;;;;15.65;8.40;;;1.80;99.90;;;;;;4985271;28;20711;-92
2023/01/24 19:02:05;;;;;;;13.55;9.38;;;1.90;99.90;;;;;;4984177;28;20203;-93
2023/01/24 19:04:34;;;;;;;14.20;8.85;;;1.80;99.90;;;;;;4982996;28;20200;-93
2023/01/24 19:07:19;;;;;;;11.15;7.95;;;1.80;99.90;;;;;;4987151;28;20214;-92
2023/01/24 19:12:54;;;;;;;39.67;22.00;;;1.80;99.90;;;;;;4991135;28;20570;-93
2023/01/24 19:18:31;;;;;;;16.00;9.20;;;1.70;99.90;;;;;;4987941;28;20216;-94
2023/01/24 19:21:04;;;;;;;12.30;8.90;;;1.80;99.90;;;;;;4992250;28;20215;-93
2023/01/24 19:23:46;;;;;;;15.73;9.95;;;1.80;99.90;;;;;;4985396;28;20230;-93
2023/01/24 19:26:56;;;;;;;;;;;;;;;;;;;;;
2023/01/24 19:32:38;;;;;;;17.00;10.90;;;1.90;99.90;;;;;;4895152;29;20242;-93
2023/01/24 19:35:06;;;;;;;15.55;9.40;;;1.80;99.90;;;;;;4967868;29;20215;-92
2023/01/24 19:37:36;;;;;;;13.48;8.77;;;1.90;99.90;;;;;;4966844;28;20302;-91
2023/01/24 19:40:04;;;;;;;16.17;9.43;;;1.80;99.90;;;;;;4967884;28;20258;-93
2023/01/24 19:42:31;;;;;;;13.38;8.15;;;1.90;99.90;;;;;;4960378;29;20299;-93
2023/01/24 19:44:58;;;;;;;21.98;10.80;;;1.90;99.90;;;;;;4965374;29;20208;-94
2023/01/24 19:47:25;;;;;;;15.05;8.73;;;1.90;99.90;;;;;;4966518;29;20231;-92
2023/01/24 19:49:55;;;;;;;15.32;10.13;;;1.90;99.90;;;;;;4958284;29;20208;-93
2023/01/24 19:52:25;;;;;;;16.67;8.65;;;1.80;99.90;;;;;;4965028;28;20236;-94
2023/01/24 19:54:53;;;;;;;15.80;8.50;;;1.80;99.90;;;;;;4979288;28;20230;-93
2023/01/24 19:57:22;;;;;;;15.52;9.57;;;1.80;99.90;;;;;;4978388;28;20226;-93
2023/01/24 19:59:49;;;;;;;16.10;10.35;;;1.80;99.90;;;;;;4976545;28;20211;-93
2023/01/24 20:02:20;;;;;;;14.88;9.45;;;1.80;99.90;;;;;;4983398;28;20230;-94
2023/01/24 20:04:51;;;;;;;16.80;9.20;;;1.70;99.90;;;;;;4982328;28;20266;-93
2023/01/24 20:07:21;;;;;;;12.68;8.60;;;1.70;99.90;;;;;;4979621;28;20405;-93
2023/01/24 20:09:48;;;;;;;15.85;10.30;;;1.70;99.90;;;;;;4978228;28;20204;-92
2023/01/24 20:12:17;;;;;;;14.75;8.90;;;1.70;99.90;;;;;;4974868;28;20252;-93
2023/01/24 20:14:44;;;;;;;14.48;9.65;;;1.70;99.90;;;;;;4975310;28;20204;-92
2023/01/24 20:17:11;;;;;;;16.40;9.82;;;1.70;99.90;;;;;;4977747;28;20286;-92
2023/01/24 20:19:40;;;;;;;14.52;9.57;;;1.70;99.90;;;;;;4976901;28;20212;-92
2023/01/24 20:22:08;;;;;;;21.55;10.25;;;1.70;99.90;;;;;;4966709;28;20236;-92
2023/01/24 20:24:35;;;;;;;16.25;9.30;;;1.80;99.90;;;;;;4973037;28;20230;-94
2023/01/24 20:27:02;;;;;;;11.70;7.70;;;1.80;99.90;;;;;;4972606;28;20208;-91
2023/01/24 20:29:30;;;;;;;13.45;8.43;;;1.80;99.90;;;;;;4974796;28;20255;-93
2023/01/24 20:31:57;;;;;;;14.82;7.88;;;1.70;99.90;;;;;;4974913;28;20580;-93
2023/01/24 20:34:26;;;;;;;11.70;7.40;;;1.70;99.90;;;;;;4977235;28;20262;-93